Time;durP1;ratioP1;P1;durP2;ratioP2;P2;SDS_P1;SDS_P2;PMS_P1;PMS_P2;Temp;Humidity;BMP_temperature;BMP_pressure;BME280_temperature;BME280_humidity;BME280_pressure;Samples;Min_cycle;Max_cycle;Signal;HPM_P1;HPM_P2
2022/01/20 00:01:46;;;;;;;13.00;5.32;;;9.30;56.20;;;;;;6321935;28;20036;-70
2022/01/20 00:05:03;;;;;;;10.57;4.85;;;9.30;56.30;;;;;;6304411;28;20051;-70
2022/01/20 00:27:57;;;;;;;8.88;4.03;;;9.40;56.10;;;;;;6302656;28;20032;-70
2022/01/20 00:31:25;;;;;;;9.65;3.58;;;9.30;56.00;;;;;;6321491;28;20071;-70
2022/01/20 00:34:31;;;;;;;9.80;3.15;;;9.40;55.90;;;;;;6299586;28;20060;-69
2022/01/20 00:37:32;;;;;;;4.53;1.95;;;9.30;55.70;;;;;;6302249;28;20272;-69
2022/01/20 00:40:33;;;;;;;4.13;2.03;;;9.30;55.50;;;;;;6311406;28;20047;-70
2022/01/20 00:43:34;;;;;;;7.80;2.38;;;9.30;55.00;;;;;;6303366;28;20024;-70
2022/01/20 00:46:36;;;;;;;5.35;2.22;;;9.40;54.80;;;;;;6302676;28;20077;-70
2022/01/20 00:49:37;;;;;;;5.88;2.72;;;9.40;54.60;;;;;;6303260;28;20089;-70
2022/01/20 00:52:38;;;;;;;6.70;2.67;;;9.40;54.30;;;;;;6302702;28;20025;-70
2022/01/20 00:55:40;;;;;;;7.20;2.65;;;9.30;53.90;;;;;;6302919;28;20039;-70
2022/01/20 00:58:41;;;;;;;6.88;3.10;;;9.40;53.70;;;;;;6302869;28;20020;-70
2022/01/20 01:01:42;;;;;;;7.53;2.88;;;9.30;53.50;;;;;;6302556;28;20059;-70
2022/01/20 01:04:44;;;;;;;8.98;3.72;;;9.30;53.40;;;;;;6302233;28;20039;-70
2022/01/20 01:07:47;;;;;;;8.25;3.40;;;9.30;53.40;;;;;;6299487;28;20036;-70
2022/01/20 01:10:50;;;;;;;12.55;3.95;;;9.40;53.40;;;;;;6302738;28;20035;-69
2022/01/20 01:13:53;;;;;;;9.02;4.22;;;9.20;53.30;;;;;;6320710;28;20024;-70
2022/01/20 01:20:30;;;;;;;13.57;5.80;;;9.20;53.40;;;;;;6317561;28;20052;-72
2022/01/20 01:23:24;;;;;;;11.93;5.03;;;9.20;53.60;;;;;;6299367;28;20468;-70
2022/01/20 01:26:27;;;;;;;13.70;5.30;;;9.00;53.60;;;;;;6302642;28;20024;-69
2022/01/20 01:30:22;;;;;;;13.80;5.28;;;9.00;53.80;;;;;;6285722;28;20365;-69
2022/01/20 01:32:55;;;;;;;13.85;6.30;;;9.00;53.80;;;;;;6293743;28;20036;-69
2022/01/20 01:35:58;;;;;;;11.27;5.90;;;8.90;53.80;;;;;;6302174;28;20035;-71
2022/01/20 01:38:59;;;;;;;14.15;6.28;;;8.90;54.50;;;;;;6285412;28;20021;-69
2022/01/20 01:42:03;;;;;;;12.63;6.22;;;8.90;54.00;;;;;;6302093;28;20074;-69
2022/01/20 01:45:18;;;;;;;13.88;5.65;;;8.90;54.00;;;;;;6284037;28;20024;-69
2022/01/20 01:48:20;;;;;;;15.50;5.80;;;8.90;53.90;;;;;;6301750;28;20028;-70
2022/01/20 01:51:21;;;;;;;13.90;6.05;;;8.90;53.90;;;;;;6319570;28;20028;-70
2022/01/20 01:54:22;;;;;;;10.73;5.30;;;8.90;53.90;;;;;;6301818;28;20379;-69
2022/01/20 01:57:25;;;;;;;14.82;6.60;;;8.90;54.00;;;;;;6284950;28;20035;-70
2022/01/20 02:00:27;;;;;;;13.93;6.07;;;8.90;53.90;;;;;;6301017;28;20043;-70
2022/01/20 02:03:43;;;;;;;13.50;6.03;;;8.90;53.80;;;;;;6285705;28;20532;-70
2022/01/20 02:19:58;;;;;;;16.25;5.75;;;8.90;53.50;;;;;;6300177;28;20542;-69
2022/01/20 02:23:26;;;;;;;13.85;6.65;;;8.80;53.50;;;;;;6302551;28;20048;-70
2022/01/20 02:26:28;;;;;;;16.13;6.72;;;8.80;53.60;;;;;;6301142;28;20538;-69
2022/01/20 02:29:29;;;;;;;13.82;6.57;;;8.80;53.70;;;;;;6300711;28;20062;-70
2022/01/20 02:32:30;;;;;;;21.15;7.22;;;8.80;53.70;;;;;;6283379;28;20036;-71
2022/01/20 02:35:35;;;;;;;14.75;6.38;;;8.70;53.70;;;;;;6318726;28;20032;-70
2022/01/20 02:38:47;;;;;;;13.38;6.78;;;8.80;53.90;;;;;;6282480;28;20480;-71
2022/01/20 02:45:07;;;;;;;17.02;7.63;;;8.70;53.90;;;;;;6317807;28;20028;-69
2022/01/20 02:48:08;;;;;;;12.95;7.25;;;8.70;54.00;;;;;;6283819;28;20337;-71
2022/01/20 02:51:10;;;;;;;17.42;7.13;;;8.60;54.10;;;;;;6300619;28;20035;-69
2022/01/20 02:54:12;;;;;;;16.02;7.30;;;8.60;54.20;;;;;;6300334;28;20411;-71
2022/01/20 02:57:13;;;;;;;19.00;7.45;;;8.50;54.40;;;;;;6300166;28;20028;-70
2022/01/20 03:00:14;;;;;;;13.45;6.75;;;8.50;54.50;;;;;;6300006;28;20371;-70
2022/01/20 03:03:16;;;;;;;20.17;6.93;;;8.50;54.60;;;;;;6300239;28;20052;-69
2022/01/20 03:06:17;;;;;;;18.73;7.45;;;8.40;54.60;;;;;;6300115;28;20097;-69
2022/01/20 03:09:19;;;;;;;17.30;7.53;;;8.40;54.70;;;;;;6299994;28;20043;-69
2022/01/20 03:12:20;;;;;;;12.48;5.90;;;8.40;54.80;;;;;;6299905;28;20369;-69
2022/01/20 03:15:22;;;;;;;15.43;6.38;;;8.40;54.90;;;;;;6299777;28;20025;-69
2022/01/20 03:18:23;;;;;;;14.38;5.88;;;8.40;55.00;;;;;;6309569;28;20036;-69
2022/01/20 03:21:24;;;;;;;16.77;7.28;;;8.30;54.90;;;;;;6300140;28;20391;-69
2022/01/20 03:24:26;;;;;;;13.98;6.00;;;8.30;55.00;;;;;;6284397;28;20052;-69
2022/01/20 03:27:27;;;;;;;15.32;6.15;;;8.20;55.10;;;;;;6283814;28;20034;-70
2022/01/20 03:30:28;;;;;;;13.82;5.72;;;8.20;55.20;;;;;;6299426;28;20110;-70
2022/01/20 03:33:30;;;;;;;12.55;6.03;;;8.10;55.20;;;;;;6299672;28;20024;-70
2022/01/20 03:36:33;;;;;;;17.48;6.43;;;8.10;55.30;;;;;;6293176;28;20039;-69
2022/01/20 03:39:43;;;;;;;16.65;6.30;;;8.10;55.30;;;;;;6298426;28;20461;-70
2022/01/20 03:42:44;;;;;;;19.25;6.35;;;8.10;55.40;;;;;;6299431;28;20024;-70
2022/01/20 03:45:51;;;;;;;12.80;5.53;;;8.10;55.50;;;;;;6296904;28;20036;-70
2022/01/20 03:48:55;;;;;;;13.77;6.03;;;8.00;55.60;;;;;;6317602;28;20092;-70
2022/01/20 03:51:56;;;;;;;15.52;6.13;;;8.00;55.70;;;;;;6282228;28;20043;-69
2022/01/20 03:54:58;;;;;;;15.00;6.75;;;8.00;55.70;;;;;;6299693;28;20121;-69
2022/01/20 03:57:59;;;;;;;11.13;5.88;;;8.00;55.80;;;;;;6317376;28;20041;-69
2022/01/20 04:01:06;;;;;;;11.63;5.30;;;8.00;55.70;;;;;;6283296;28;20032;-70
2022/01/20 04:04:27;;;;;;;10.38;5.40;;;7.90;55.70;;;;;;6316788;28;20040;-70
2022/01/20 04:07:43;;;;;;;14.48;5.70;;;7.90;55.60;;;;;;6299607;28;20032;-70
2022/01/20 04:10:44;;;;;;;19.15;6.97;;;8.00;55.60;;;;;;6317370;28;20058;-69
2022/01/20 04:13:46;;;;;;;12.40;4.93;;;8.00;55.50;;;;;;6282608;28;20051;-70
2022/01/20 04:19:59;;;;;;;11.07;5.20;;;8.10;55.10;;;;;;6293265;28;20035;-69
2022/01/20 04:23:00;;;;;;;11.63;4.38;;;8.10;55.00;;;;;;6295761;28;20056;-69
2022/01/20 04:26:01;;;;;;;11.23;4.10;;;8.20;54.80;;;;;;6299127;28;20107;-69
2022/01/20 04:29:05;;;;;;;7.70;3.88;;;8.20;54.60;;;;;;6282434;28;20042;-70
2022/01/20 04:32:07;;;;;;;7.40;3.80;;;8.30;54.60;;;;;;6316651;28;20039;-70
2022/01/20 04:35:08;;;;;;;9.63;4.00;;;8.30;54.50;;;;;;6298908;28;20020;-69
2022/01/20 04:38:09;;;;;;;9.57;4.10;;;8.30;54.40;;;;;;6273841;28;20032;-69
2022/01/20 04:41:10;;;;;;;7.93;4.40;;;8.40;54.40;;;;;;6299690;28;20459;-69
2022/01/20 04:44:19;;;;;;;9.63;4.13;;;8.40;54.20;;;;;;6286857;28;20118;-69
2022/01/20 04:47:38;;;;;;;9.55;3.75;;;8.30;54.10;;;;;;6286664;28;20173;-70
2022/01/20 04:57:22;;;;;;;10.63;4.40;;;8.40;54.20;;;;;;6302960;28;20062;-69
2022/01/20 05:00:24;;;;;;;9.45;3.42;;;8.40;54.10;;;;;;6286144;28;20082;-69
2022/01/20 05:03:47;;;;;;;8.73;3.83;;;8.40;54.00;;;;;;6218322;28;20025;-70
2022/01/20 05:07:02;;;;;;;8.68;4.07;;;8.40;53.80;;;;;;6201798;28;20030;-70
2022/01/20 05:10:07;;;;;;;10.60;4.30;;;8.50;53.70;;;;;;6218229;28;20029;-69
2022/01/20 05:13:22;;;;;;;10.27;4.07;;;8.50;53.60;;;;;;6201830;28;20045;-70
2022/01/20 05:16:24;;;;;;;8.88;3.55;;;8.60;53.60;;;;;;6202038;28;20187;-69
2022/01/20 05:19:28;;;;;;;10.07;4.38;;;8.60;53.50;;;;;;6202124;28;20117;-69
2022/01/20 05:22:30;;;;;;;13.00;4.90;;;8.60;53.40;;;;;;6201694;28;20759;-70
2022/01/20 05:25:34;;;;;;;12.05;4.93;;;8.70;53.40;;;;;;6217924;28;20589;-70
2022/01/20 05:28:37;;;;;;;12.48;4.78;;;8.70;53.30;;;;;;6218229;28;20053;-69
2022/01/20 05:31:38;;;;;;;10.80;4.38;;;8.70;53.20;;;;;;6217514;28;20034;-69
2022/01/20 05:34:40;;;;;;;8.98;4.72;;;8.90;53.30;;;;;;6217535;28;20038;-69
2022/01/20 05:37:41;;;;;;;9.23;4.03;;;8.70;53.20;;;;;;6217866;28;20101;-69
2022/01/20 05:40:43;;;;;;;11.38;5.13;;;8.80;53.20;;;;;;6247917;28;20098;-70
2022/01/20 05:43:45;;;;;;;9.23;4.13;;;8.80;53.20;;;;;;6269002;28;20074;-70
2022/01/20 05:46:49;;;;;;;9.90;4.32;;;8.80;53.10;;;;;;6267358;28;20087;-70
2022/01/20 05:50:23;;;;;;;10.50;4.20;;;8.80;53.00;;;;;;6162880;28;20121;-71
2022/01/20 05:53:24;;;;;;;7.57;3.88;;;8.90;52.90;;;;;;6152089;28;20117;-71
2022/01/20 05:56:25;;;;;;;10.23;4.13;;;8.90;52.80;;;;;;6155245;28;20500;-70
2022/01/20 05:59:26;;;;;;;8.82;4.10;;;8.80;52.70;;;;;;6152742;28;20026;-71
2022/01/20 06:02:36;;;;;;;8.80;3.90;;;8.80;52.70;;;;;;6152861;28;20078;-70
2022/01/20 06:05:40;;;;;;;17.33;5.95;;;8.80;52.80;;;;;;6153077;28;20031;-70
2022/01/20 06:08:43;;;;;;;15.48;5.38;;;8.80;52.80;;;;;;6152724;28;20030;-70
2022/01/20 06:11:44;;;;;;;12.32;5.70;;;8.70;52.90;;;;;;6151812;28;20031;-70
2022/01/20 06:14:48;;;;;;;18.50;5.35;;;8.70;53.10;;;;;;6148600;28;20044;-71
2022/01/20 06:17:49;;;;;;;14.35;5.15;;;8.70;53.20;;;;;;6184876;28;20030;-71
2022/01/20 06:20:51;;;;;;;11.52;5.45;;;8.70;53.20;;;;;;6151913;28;20602;-71
2022/01/20 06:23:52;;;;;;;16.00;5.68;;;8.70;53.20;;;;;;6154032;28;20054;-70
2022/01/20 06:26:55;;;;;;;16.17;6.28;;;8.70;53.20;;;;;;6242878;28;20580;-70
2022/01/20 06:29:57;;;;;;;14.55;5.82;;;8.70;53.30;;;;;;6291849;28;20029;-70
2022/01/20 06:32:59;;;;;;;13.02;5.30;;;8.70;53.50;;;;;;6290154;28;20038;-70
2022/01/20 06:36:05;;;;;;;12.48;5.35;;;8.60;53.50;;;;;;6275614;28;20048;-71
2022/01/20 06:39:06;;;;;;;10.85;5.07;;;8.60;53.50;;;;;;6274564;28;20055;-70
2022/01/20 06:42:11;;;;;;;14.68;4.93;;;8.50;53.40;;;;;;6290245;28;20062;-74
2022/01/20 06:45:15;;;;;;;13.43;5.22;;;8.50;53.40;;;;;;6285917;28;20492;-72
2022/01/20 06:48:17;;;;;;;8.93;4.22;;;8.50;53.30;;;;;;6275590;28;20512;-73
2022/01/20 06:51:38;;;;;;;8.93;4.15;;;8.50;53.20;;;;;;6292425;28;20048;-73
2022/01/20 06:54:39;;;;;;;7.70;3.83;;;8.60;53.10;;;;;;6269516;28;20024;-72
2022/01/20 06:57:41;;;;;;;8.15;4.22;;;8.60;53.10;;;;;;6274751;28;20511;-72
2022/01/20 07:00:42;;;;;;;11.52;4.57;;;8.70;53.00;;;;;;6274904;28;20519;-72
2022/01/20 07:03:44;;;;;;;10.02;4.38;;;8.70;52.90;;;;;;6262257;28;20526;-72
2022/01/20 07:06:46;;;;;;;11.40;4.10;;;8.70;52.90;;;;;;6275382;28;20187;-72
2022/01/20 07:10:08;;;;;;;9.68;3.92;;;8.80;52.90;;;;;;6290866;28;20059;-71
2022/01/20 07:13:15;;;;;;;9.10;3.78;;;8.80;52.80;;;;;;6275924;28;20056;-71
2022/01/20 07:16:17;;;;;;;15.35;5.18;;;8.80;52.80;;;;;;6292278;28;20025;-72
2022/01/20 07:19:20;;;;;;;12.82;5.63;;;8.80;52.70;;;;;;6288273;28;20036;-72
2022/01/20 07:22:22;;;;;;;11.95;4.38;;;8.70;52.60;;;;;;6288458;28;20699;-71
2022/01/20 07:25:26;;;;;;;20.20;6.75;;;8.60;52.80;;;;;;6295870;28;20040;-71
2022/01/20 07:28:31;;;;;;;13.98;5.88;;;8.50;53.10;;;;;;6297285;28;20517;-72
2022/01/20 07:31:33;;;;;;;14.48;6.40;;;8.40;53.30;;;;;;6299198;28;20059;-72
2022/01/20 07:34:34;;;;;;;15.30;6.03;;;8.30;53.50;;;;;;6299694;28;20400;-72
2022/01/20 07:37:35;;;;;;;18.10;6.90;;;8.20;53.80;;;;;;6281199;28;20028;-71
2022/01/20 07:40:37;;;;;;;13.18;6.43;;;8.20;54.10;;;;;;6297492;28;20043;-71
2022/01/20 07:43:40;;;;;;;13.88;5.88;;;8.20;54.20;;;;;;6299332;28;20032;-71
2022/01/20 07:47:04;;;;;;;12.18;5.63;;;8.20;54.30;;;;;;6257362;28;20080;-72
2022/01/20 07:50:06;;;;;;;16.48;6.35;;;8.20;54.20;;;;;;6237383;28;20033;-72
2022/01/20 07:53:08;;;;;;;13.20;6.47;;;8.20;54.40;;;;;;6225862;28;20033;-72
2022/01/20 07:56:10;;;;;;;15.20;7.25;;;8.10;54.40;;;;;;6245331;28;20123;-72
2022/01/20 07:59:11;;;;;;;15.38;5.85;;;8.10;54.50;;;;;;6237636;28;20810;-75
2022/01/20 08:02:17;;;;;;;17.90;6.95;;;8.10;54.70;;;;;;6243853;28;20055;-70
2022/01/20 08:05:19;;;;;;;19.55;7.32;;;8.00;54.80;;;;;;6244815;28;20033;-71
2022/01/20 08:08:20;;;;;;;11.55;5.72;;;8.00;55.00;;;;;;6255812;28;20029;-72
2022/01/20 08:11:35;;;;;;;14.82;5.47;;;7.90;55.10;;;;;;6235938;28;20056;-71
2022/01/20 08:14:59;;;;;;;11.15;5.30;;;7.90;55.00;;;;;;6241966;28;20017;-70
2022/01/20 08:18:36;;;;;;;12.35;4.57;;;8.00;54.90;;;;;;6138651;28;20180;-73
2022/01/20 08:21:37;;;;;;;14.88;6.32;;;8.00;54.80;;;;;;6143198;28;20027;-73
2022/01/20 08:24:41;;;;;;;15.73;5.85;;;8.10;54.70;;;;;;6165244;28;20665;-73
2022/01/20 08:27:44;;;;;;;11.02;5.45;;;8.10;54.70;;;;;;6167663;28;20047;-73
2022/01/20 08:30:45;;;;;;;26.52;6.30;;;8.10;54.70;;;;;;6172362;28;20030;-72
2022/01/20 08:33:47;;;;;;;13.82;6.50;;;8.10;54.60;;;;;;6195172;28;20093;-73
2022/01/20 08:36:55;;;;;;;23.42;6.20;;;8.20;54.60;;;;;;6177001;28;20023;-72
2022/01/20 08:39:57;;;;;;;16.80;6.32;;;8.30;54.60;;;;;;6184201;28;20065;-72
2022/01/20 08:42:58;;;;;;;10.80;5.35;;;8.40;54.50;;;;;;6184607;28;20478;-71
2022/01/20 08:46:01;;;;;;;19.23;6.68;;;8.40;54.40;;;;;;6183390;28;20045;-73
2022/01/20 08:49:02;;;;;;;16.52;6.20;;;8.50;54.40;;;;;;6177425;28;20117;-72
2022/01/20 08:52:14;;;;;;;23.85;6.05;;;8.60;54.20;;;;;;6235850;28;20040;-72
2022/01/20 08:55:19;;;;;;;20.27;7.28;;;8.70;54.00;;;;;;6279624;28;20051;-72
2022/01/20 08:58:26;;;;;;;14.83;5.67;;;8.70;54.00;;;;;;6313139;28;20039;-72
2022/01/20 09:01:28;;;;;;;14.85;6.63;;;8.80;53.80;;;;;;6282198;28;20262;-72
2022/01/20 09:04:30;;;;;;;12.75;5.95;;;8.80;53.60;;;;;;6290976;28;20052;-72
2022/01/20 09:07:50;;;;;;;15.82;5.25;;;8.80;53.40;;;;;;6296901;28;20040;-71
2022/01/20 09:10:55;;;;;;;14.20;6.30;;;8.90;53.30;;;;;;6302232;28;20119;-73
2022/01/20 09:17:24;;;;;;;20.40;6.90;;;9.00;53.10;;;;;;6291133;28;20552;-72
2022/01/20 09:20:26;;;;;;;13.73;5.72;;;9.10;53.00;;;;;;6281310;28;20032;-74
2022/01/20 09:23:29;;;;;;;9.90;5.50;;;9.20;52.90;;;;;;6276703;28;20059;-72
2022/01/20 09:26:30;;;;;;;7.38;4.55;;;9.30;52.60;;;;;;6277128;28;20036;-73
2022/01/20 09:29:34;;;;;;;13.15;5.25;;;9.40;52.40;;;;;;6289985;28;20060;-72
2022/01/20 09:32:39;;;;;;;20.83;6.07;;;9.50;52.40;;;;;;6286498;28;20111;-73
2022/01/20 09:35:43;;;;;;;10.70;4.57;;;9.60;52.20;;;;;;6291348;28;20020;-71
2022/01/20 09:39:03;;;;;;;13.35;5.13;;;9.70;52.10;;;;;;6290021;28;20044;-73
2022/01/20 09:42:23;;;;;;;8.35;4.40;;;9.80;51.80;;;;;;6289193;28;20440;-73
2022/01/20 09:45:26;;;;;;;9.55;4.40;;;9.80;51.60;;;;;;6273354;28;20040;-73
2022/01/20 09:48:28;;;;;;;10.98;5.22;;;9.80;51.50;;;;;;6292719;28;20127;-72
2022/01/20 09:51:45;;;;;;;12.07;5.07;;;9.80;51.60;;;;;;6292801;28;20028;-73
2022/01/20 09:54:52;;;;;;;14.02;4.75;;;9.70;51.50;;;;;;6292834;28;20033;-72
2022/01/20 09:57:55;;;;;;;9.10;4.05;;;9.70;51.50;;;;;;6275986;28;20024;-73
2022/01/20 10:00:58;;;;;;;12.23;5.40;;;9.70;51.50;;;;;;6291813;28;20069;-73
2022/01/20 10:04:00;;;;;;;10.15;4.68;;;9.70;51.60;;;;;;6276259;28;20029;-73
2022/01/20 10:07:09;;;;;;;9.50;3.53;;;9.70;51.60;;;;;;6292589;28;20413;-72
2022/01/20 10:10:13;;;;;;;11.68;4.72;;;9.70;51.40;;;;;;6286068;28;20028;-73
2022/01/20 10:13:42;;;;;;;10.63;4.28;;;9.80;51.20;;;;;;6293345;28;20048;-73
2022/01/20 10:17:18;;;;;;;7.40;3.50;;;9.90;51.00;;;;;;6292917;28;20051;-74
2022/01/20 10:20:19;;;;;;;6.38;3.60;;;10.20;50.60;;;;;;6303431;28;20024;-72
2022/01/20 10:23:50;;;;;;;4.72;3.13;;;10.50;50.30;;;;;;6291981;28;20098;-74
2022/01/20 10:27:15;;;;;;;7.72;3.08;;;10.80;49.90;;;;;;6278592;28;20076;-71
2022/01/20 10:30:25;;;;;;;8.98;3.83;;;11.00;49.20;;;;;;6291798;28;20055;-72
2022/01/20 10:33:26;;;;;;;8.98;3.53;;;11.10;49.10;;;;;;6274975;28;20044;-73
2022/01/20 10:36:27;;;;;;;7.15;3.28;;;11.20;48.80;;;;;;6288789;28;20024;-73
2022/01/20 10:40:09;;;;;;;11.95;3.30;;;11.30;48.40;;;;;;6288485;28;20221;-72
2022/01/20 10:43:24;;;;;;;8.57;3.85;;;11.50;48.40;;;;;;6279552;28;20033;-72
2022/01/20 10:46:26;;;;;;;8.80;4.00;;;11.70;48.20;;;;;;6290486;28;20033;-72
2022/01/20 10:49:30;;;;;;;6.60;3.08;;;11.80;47.60;;;;;;6275219;28;20128;-73
2022/01/20 10:52:37;;;;;;;12.98;3.25;;;11.90;47.50;;;;;;6291014;28;20028;-70
2022/01/20 10:55:39;;;;;;;5.38;2.80;;;12.00;47.30;;;;;;6291655;28;20021;-74
2022/01/20 10:58:47;;;;;;;6.82;3.35;;;12.20;47.20;;;;;;6285482;28;20481;-74
2022/01/20 11:02:04;;;;;;;7.47;3.03;;;12.30;46.90;;;;;;6273876;28;20104;-73
2022/01/20 11:05:06;;;;;;;6.25;2.95;;;12.40;46.70;;;;;;6272452;28;20148;-72
2022/01/20 11:08:09;;;;;;;6.20;2.95;;;12.70;46.40;;;;;;6284329;28;20504;-73
2022/01/20 11:11:13;;;;;;;6.65;2.97;;;13.00;45.40;;;;;;6290170;28;20039;-73
2022/01/20 11:14:34;;;;;;;9.95;3.58;;;13.20;44.60;;;;;;6292243;28;20028;-74
2022/01/20 11:17:37;;;;;;;6.88;3.22;;;13.60;43.90;;;;;;6289510;28;20055;-73
2022/01/20 11:20:47;;;;;;;8.65;3.53;;;13.80;43.10;;;;;;6273401;28;20028;-73
2022/01/20 11:23:51;;;;;;;7.20;3.20;;;14.10;42.80;;;;;;6265816;28;20044;-74
2022/01/20 11:27:15;;;;;;;10.85;3.50;;;14.30;41.90;;;;;;6277360;28;20032;-75
2022/01/20 11:30:40;;;;;;;10.65;3.78;;;14.70;41.30;;;;;;6284750;28;20032;-74
2022/01/20 11:33:52;;;;;;;7.10;3.45;;;15.10;40.50;;;;;;6290080;28;20093;-73
2022/01/20 11:36:53;;;;;;;9.50;3.33;;;15.30;39.70;;;;;;6290504;28;20012;-74
2022/01/20 11:40:06;;;;;;;7.05;3.03;;;15.50;39.40;;;;;;6282879;28;20030;-72
2022/01/20 11:43:10;;;;;;;9.05;4.10;;;15.90;39.00;;;;;;6283515;28;20078;-75
2022/01/20 11:46:27;;;;;;;8.70;4.20;;;16.30;37.80;;;;;;6286626;28;20055;-73
2022/01/20 11:49:39;;;;;;;6.75;3.42;;;16.60;37.70;;;;;;6290391;28;20037;-74
2022/01/20 11:52:40;;;;;;;10.73;4.28;;;16.90;37.30;;;;;;6295195;28;20024;-74
2022/01/20 11:55:54;;;;;;;6.50;3.53;;;17.10;36.90;;;;;;6296064;28;20263;-75
2022/01/20 11:58:55;;;;;;;6.15;3.28;;;17.40;36.50;;;;;;6295204;28;20035;-73
2022/01/20 12:01:56;;;;;;;7.63;3.58;;;17.80;35.60;;;;;;6295196;28;20036;-74
2022/01/20 12:04:57;;;;;;;7.15;3.70;;;18.10;34.60;;;;;;6295181;28;20725;-75
2022/01/20 12:08:21;;;;;;;8.90;3.80;;;18.20;33.90;;;;;;6292639;28;20037;-74
2022/01/20 12:11:34;;;;;;;8.13;4.28;;;17.90;34.50;;;;;;6295917;28;20024;-76
2022/01/20 12:14:38;;;;;;;10.13;3.50;;;17.00;35.50;;;;;;6296005;28;20036;-74
2022/01/20 12:17:41;;;;;;;8.57;3.83;;;16.20;36.80;;;;;;6294513;28;20378;-76
2022/01/20 12:20:43;;;;;;;11.23;4.82;;;15.50;37.90;;;;;;6296070;28;20052;-74
2022/01/20 12:23:46;;;;;;;9.85;4.13;;;14.80;38.90;;;;;;6285784;28;20036;-74
2022/01/20 12:26:48;;;;;;;8.13;4.15;;;14.30;40.00;;;;;;6294033;28;20622;-73
2022/01/20 12:29:50;;;;;;;9.02;4.53;;;13.90;40.90;;;;;;6275643;28;20501;-73
2022/01/20 12:33:06;;;;;;;8.60;3.55;;;13.50;41.70;;;;;;6287543;28;20040;-74
2022/01/20 12:36:13;;;;;;;6.82;3.95;;;13.20;42.50;;;;;;6294324;28;20040;-73
2022/01/20 12:39:26;;;;;;;12.85;3.80;;;13.00;43.00;;;;;;6288675;28;20089;-74
2022/01/20 12:42:37;;;;;;;10.88;3.78;;;12.80;43.40;;;;;;6293578;28;20047;-74
2022/01/20 12:45:56;;;;;;;6.97;4.10;;;12.70;43.80;;;;;;6293773;28;20120;-74
2022/01/20 12:49:08;;;;;;;9.20;3.95;;;12.60;44.10;;;;;;6295226;28;20040;-74
2022/01/20 12:52:10;;;;;;;11.73;4.03;;;12.40;44.40;;;;;;6294886;28;20033;-74
2022/01/20 12:55:11;;;;;;;6.72;3.42;;;12.40;44.70;;;;;;6291511;28;20028;-75
2022/01/20 12:58:13;;;;;;;8.95;3.95;;;12.30;44.80;;;;;;6276499;28;20542;-74
2022/01/20 13:01:14;;;;;;;11.05;4.60;;;12.20;45.00;;;;;;6293027;28;20043;-75
2022/01/20 13:04:20;;;;;;;9.50;3.53;;;12.20;45.40;;;;;;6285814;28;20522;-74
2022/01/20 13:07:21;;;;;;;6.93;3.42;;;12.10;45.50;;;;;;6293638;28;20151;-74
2022/01/20 13:10:31;;;;;;;8.18;3.10;;;12.00;45.60;;;;;;6285850;28;20020;-73
2022/01/20 13:13:33;;;;;;;6.57;3.17;;;12.00;45.80;;;;;;6294810;28;20116;-75
2022/01/20 13:16:34;;;;;;;7.18;3.58;;;11.90;45.90;;;;;;6268980;28;20120;-75
2022/01/20 13:19:47;;;;;;;6.20;3.08;;;11.90;45.90;;;;;;6293415;28;20024;-73
2022/01/20 13:23:54;;;;;;;7.57;3.83;;;11.80;46.00;;;;;;6296920;28;20449;-75
2022/01/20 13:26:25;;;;;;;8.43;3.40;;;11.80;46.30;;;;;;6318834;28;20047;-74
2022/01/20 13:29:45;;;;;;;7.72;3.70;;;11.90;46.50;;;;;;6300512;28;20081;-75
2022/01/20 13:32:49;;;;;;;6.72;3.30;;;11.80;46.80;;;;;;6282969;28;20031;-75
2022/01/20 13:36:01;;;;;;;8.60;3.10;;;11.80;46.80;;;;;;6301727;28;20111;-73
2022/01/20 13:39:03;;;;;;;11.13;3.55;;;11.80;46.90;;;;;;6300617;28;20035;-74
2022/01/20 13:45:38;;;;;;;7.65;3.45;;;11.70;47.00;;;;;;6300748;28;20115;-74
2022/01/20 13:48:39;;;;;;;11.70;3.63;;;11.70;47.10;;;;;;6318943;28;20127;-74
2022/01/20 13:51:41;;;;;;;6.35;2.55;;;11.70;47.30;;;;;;6298407;28;20628;-74
2022/01/20 13:55:03;;;;;;;6.68;3.65;;;11.60;47.40;;;;;;6283849;28;20059;-75
2022/01/20 13:58:05;;;;;;;7.82;3.25;;;11.60;47.50;;;;;;6296873;28;20633;-74
2022/01/20 14:01:09;;;;;;;10.20;3.08;;;11.60;47.70;;;;;;6283599;28;20021;-74
2022/01/20 14:04:10;;;;;;;7.50;3.63;;;11.50;47.80;;;;;;6283188;28;20056;-75
2022/01/20 14:07:11;;;;;;;8.07;3.67;;;11.50;48.00;;;;;;6318112;28;20028;-75
2022/01/20 14:10:12;;;;;;;5.53;2.70;;;11.40;48.30;;;;;;6283517;28;20035;-75
2022/01/20 14:13:13;;;;;;;8.13;3.95;;;11.40;48.50;;;;;;6282655;28;20036;-73
2022/01/20 14:16:15;;;;;;;9.38;4.65;;;11.40;48.70;;;;;;6316807;28;20517;-76
2022/01/20 14:19:22;;;;;;;9.68;4.10;;;11.30;48.80;;;;;;6310427;28;20027;-74
2022/01/20 14:22:23;;;;;;;12.13;3.85;;;11.40;49.10;;;;;;6277026;28;20024;-74
2022/01/20 14:25:25;;;;;;;10.48;3.83;;;11.20;49.30;;;;;;6316042;28;20046;-73
2022/01/20 14:28:26;;;;;;;7.78;3.50;;;11.10;49.40;;;;;;6317365;28;20104;-73
2022/01/20 14:31:27;;;;;;;8.98;3.42;;;11.10;49.60;;;;;;6282638;28;20024;-74
2022/01/20 14:34:28;;;;;;;6.70;3.00;;;11.00;49.80;;;;;;6317640;28;20578;-73
2022/01/20 14:37:29;;;;;;;7.07;2.75;;;11.00;49.90;;;;;;6295967;28;20068;-75
2022/01/20 14:40:30;;;;;;;8.85;3.47;;;11.00;50.10;;;;;;6299500;28;20103;-75
2022/01/20 14:43:31;;;;;;;5.50;2.63;;;10.90;50.20;;;;;;6298736;28;20040;-74
2022/01/20 14:46:32;;;;;;;6.00;2.58;;;10.90;50.30;;;;;;6316573;28;20108;-74
2022/01/20 14:49:35;;;;;;;6.13;3.17;;;10.80;50.40;;;;;;6299841;28;20035;-73
2022/01/20 14:52:36;;;;;;;5.57;3.22;;;10.80;50.60;;;;;;6299339;28;20039;-74
2022/01/20 14:55:38;;;;;;;8.13;3.05;;;10.80;50.80;;;;;;6299506;28;20101;-73
2022/01/20 14:58:39;;;;;;;7.13;3.25;;;10.70;50.90;;;;;;6317412;28;20093;-74
2022/01/20 15:01:40;;;;;;;13.13;3.97;;;10.70;51.10;;;;;;6299341;28;20024;-73
2022/01/20 15:04:42;;;;;;;10.40;3.25;;;10.60;51.10;;;;;;6317509;28;20032;-72
2022/01/20 15:07:44;;;;;;;6.82;2.95;;;10.60;51.30;;;;;;6317009;28;20507;-72
2022/01/20 15:10:45;;;;;;;6.68;2.67;;;10.50;51.50;;;;;;6276099;28;20123;-74
2022/01/20 15:13:46;;;;;;;5.85;2.25;;;10.50;51.70;;;;;;6295165;28;20115;-72
2022/01/20 15:16:47;;;;;;;3.72;2.15;;;10.40;51.90;;;;;;6316406;28;20136;-73
2022/01/20 15:19:48;;;;;;;6.00;2.40;;;10.40;52.00;;;;;;6316113;28;20667;-72
2022/01/20 15:22:49;;;;;;;5.80;2.75;;;10.30;52.10;;;;;;6298891;28;20044;-72
2022/01/20 15:25:51;;;;;;;6.13;3.20;;;10.30;52.20;;;;;;6316486;28;20048;-73
2022/01/20 15:28:58;;;;;;;8.55;2.80;;;10.30;52.90;;;;;;6316905;28;20066;-72
2022/01/20 15:31:59;;;;;;;5.47;2.88;;;10.20;52.30;;;;;;6281679;28;20055;-72
2022/01/20 15:35:00;;;;;;;5.53;2.80;;;10.20;52.40;;;;;;6281445;28;20047;-73
2022/01/20 15:38:01;;;;;;;6.40;2.78;;;10.20;52.40;;;;;;6299272;28;20146;-72
2022/01/20 15:41:04;;;;;;;6.20;2.55;;;10.20;52.50;;;;;;6299494;28;20367;-72
2022/01/20 15:44:05;;;;;;;5.10;2.80;;;10.10;52.50;;;;;;6298335;28;20032;-73
2022/01/20 15:47:06;;;;;;;5.60;2.72;;;10.10;52.50;;;;;;6297992;28;20672;-72
2022/01/20 15:50:10;;;;;;;11.77;2.92;;;10.10;53.20;;;;;;6316595;28;20020;-73
2022/01/20 15:53:12;;;;;;;6.00;2.70;;;10.10;52.70;;;;;;6298759;28;20117;-71
2022/01/20 15:56:13;;;;;;;5.30;2.45;;;10.10;52.70;;;;;;6316636;28;20410;-72
2022/01/20 15:59:14;;;;;;;6.53;2.75;;;10.10;52.80;;;;;;6298687;28;20123;-72
2022/01/20 16:02:15;;;;;;;5.20;2.80;;;10.00;52.90;;;;;;6316253;28;20031;-73
2022/01/20 16:05:16;;;;;;;4.97;3.03;;;10.00;53.10;;;;;;6281728;28;20031;-71
2022/01/20 16:08:18;;;;;;;5.57;2.75;;;10.00;53.20;;;;;;6314928;28;20088;-71
2022/01/20 16:11:19;;;;;;;7.80;2.30;;;10.00;53.30;;;;;;6280835;28;20028;-72
2022/01/20 16:14:20;;;;;;;16.38;4.00;;;10.00;53.40;;;;;;6296516;28;20385;-72
2022/01/20 16:17:21;;;;;;;5.53;3.20;;;10.00;53.40;;;;;;6312931;28;20020;-73
2022/01/20 16:20:23;;;;;;;6.78;3.67;;;10.00;53.40;;;;;;6298386;28;20020;-73
2022/01/20 16:23:24;;;;;;;5.53;3.15;;;10.00;53.50;;;;;;6297384;28;20509;-75
2022/01/20 16:26:25;;;;;;;6.90;3.08;;;10.00;53.50;;;;;;6296614;28;20028;-74
2022/01/20 16:29:26;;;;;;;6.45;2.85;;;10.00;53.50;;;;;;6275618;28;20111;-72
2022/01/20 16:32:28;;;;;;;6.65;3.15;;;10.00;53.60;;;;;;6303630;28;20035;-73
2022/01/20 16:35:29;;;;;;;5.45;3.03;;;10.00;53.60;;;;;;6286045;28;20437;-73
2022/01/20 16:38:30;;;;;;;10.80;4.07;;;10.10;53.60;;;;;;6280457;28;20024;-73
2022/01/20 16:41:32;;;;;;;9.02;3.45;;;10.10;53.60;;;;;;6320622;28;20020;-72
2022/01/20 16:44:33;;;;;;;6.88;3.67;;;10.10;53.60;;;;;;6302853;28;20038;-73
2022/01/20 16:47:37;;;;;;;14.38;3.50;;;10.10;53.80;;;;;;6319679;28;20086;-71
2022/01/20 16:50:38;;;;;;;7.55;3.72;;;10.00;54.00;;;;;;6318786;28;20028;-72
2022/01/20 16:53:39;;;;;;;8.98;3.63;;;10.00;54.10;;;;;;6302089;28;20028;-72
2022/01/20 16:56:40;;;;;;;8.38;4.13;;;9.90;54.20;;;;;;6302226;28;20642;-71
2022/01/20 16:59:42;;;;;;;5.60;3.22;;;9.90;54.30;;;;;;6312783;28;20449;-70
2022/01/20 17:02:52;;;;;;;10.98;3.40;;;10.00;54.40;;;;;;6319595;28;20115;-71